CheckWX is a tool to help pilots better visualize weather data.  It is not intended as a substitute for an official pre-flight weather briefing.

17:30:58 UTC

LKCV TAF
Čáslav Air Base Airport
Čáslav, Czech Republic
TAF LKCV 241100Z 2412/2512 02008KT 9999 BKN040 TEMPO 2412/2415 BKN023 PROB40 TEMPO 2415/2504 35014KT 8000 RA BKN023 BECMG 2416/2419 33008KT BECMG 2504/2507 28010KT SCT030 BECMG 2510/2512 28015G28KT 7000 RA BKN020 OVC040

Mar-24@
12:00 UTC

Mar-24 @ 12:00 UTC

Mar-24@
16:00 UTC

Mar-24 @ 16:00 UTC

TAF LKCV 241100Z 2412/2512 02008KT 9999 BKN040

Expired

Wind
  • 020° at 8 KTS
Cloud Levels
  • Broken at 4,000' AGL

Mar-24@
12:00 UTC

Mar-24 @ 12:00 UTC

Mar-24@
15:00 UTC

Mar-24 @ 15:00 UTC

TEMPO 2412/2415 BKN023

Expired

Cloud Levels
  • Broken at 2,300' AGL

Mar-24@
15:00 UTC

Mar-24 @ 15:00 UTC

Mar-25@
04:00 UTC

Mar-25 @ 04:00 UTC

PROB40 TEMPO 2415/2504 35014KT 8000 RA BKN023

Temporary - 40% Likelihood

Temporary - 40% Likelihood during this time.

Wind
  • 350° at 14 KTS
Conditions
Rain
Cloud Levels
  • Broken at 2,300' AGL

Mar-24@
16:00 UTC

Mar-24 @ 16:00 UTC

Mar-25@
04:00 UTC

Mar-25 @ 04:00 UTC

BECMG 2416/2419 33008KT

Becoming

Becoming Conditions expected by Sun, Mar 24, 2019 @ 19:00 UTC

Wind
  • 330° at 8 KTS
Cloud Levels
  • Broken at 4,000' AGL

Mar-25@
04:00 UTC

Mar-25 @ 04:00 UTC

Mar-25@
10:00 UTC

Mar-25 @ 10:00 UTC

BECMG 2504/2507 28010KT SCT030

Becoming

Becoming Conditions expected by Mon, Mar 25, 2019 @ 07:00 UTC

Wind
  • 280° at 10 KTS
Cloud Levels
  • Scattered at 3,000' AGL

Mar-25@
10:00 UTC

Mar-25 @ 10:00 UTC

Mar-25@
12:00 UTC

Mar-25 @ 12:00 UTC

BECMG 2510/2512 28015G28KT 7000 RA BKN020 OVC040

Becoming

Becoming Conditions expected by Mon, Mar 25, 2019 @ 12:00 UTC

Wind
  • 280° at 15 KTS
  • {Gusting to 28 KTS
Conditions
Rain
Cloud Levels
  • Broken at 2,000' AGL
  • Overcast at 4,000' AGL